createdAt,value
2022-08-22T00:00:57.289Z,88.90
2022-08-22T00:01:57.285Z,88.70
2022-08-22T00:03:17.667Z,88.40
2022-08-22T00:03:58.233Z,88.49
2022-08-22T00:04:57.232Z,88.49
2022-08-22T00:05:57.246Z,88.60
2022-08-22T00:06:57.226Z,88.09
2022-08-22T00:07:57.415Z,88.20
2022-08-22T00:08:57.188Z,88.29
2022-08-22T00:09:57.171Z,88.90
2022-08-22T00:10:57.156Z,88.60
2022-08-22T00:11:57.169Z,89.11
2022-08-22T00:12:57.154Z,88.84
2022-08-22T00:14:01.735Z,89.04
2022-08-22T00:14:57.111Z,89.25
2022-08-22T00:15:57.103Z,89.86
2022-08-22T00:16:57.090Z,90.36
2022-08-22T00:17:57.193Z,90.16
2022-08-22T00:18:57.069Z,89.96
2022-08-22T00:19:57.079Z,89.96
2022-08-22T00:20:57.045Z,90.26
2022-08-22T00:21:57.054Z,91.12
2022-08-22T00:22:57.021Z,91.42
2022-08-22T00:23:57.035Z,90.81
2022-08-22T00:24:57.001Z,91.32
2022-08-22T00:25:56.987Z,91.22
2022-08-22T00:26:56.978Z,91.32
2022-08-22T00:27:56.975Z,91.83
2022-08-22T00:28:56.978Z,91.73
2022-08-22T00:29:56.969Z,91.87
2022-08-22T00:30:56.954Z,91.77
2022-08-22T00:31:56.920Z,91.73
2022-08-22T00:32:56.912Z,91.77
2022-08-22T00:33:56.919Z,91.87
2022-08-22T00:34:56.892Z,91.87
2022-08-22T00:35:56.879Z,91.77
2022-08-22T00:36:56.874Z,91.36
2022-08-22T00:37:56.918Z,91.36
2022-08-22T00:38:56.845Z,91.47
2022-08-22T00:39:56.885Z,91.77
2022-08-22T00:40:56.846Z,91.77
2022-08-22T00:41:56.834Z,91.36
2022-08-22T00:42:56.798Z,91.36
2022-08-22T00:43:56.817Z,91.47
2022-08-22T00:44:56.797Z,91.47
2022-08-22T00:45:56.769Z,91.67
2022-08-22T00:46:56.752Z,91.56
2022-08-22T00:47:56.765Z,91.56
2022-08-22T00:48:56.758Z,91.77
2022-08-22T00:49:56.907Z,91.97
2022-08-22T00:50:56.734Z,91.61
2022-08-22T00:51:56.699Z,92.22
2022-08-22T00:52:56.685Z,92.32
2022-08-22T00:53:56.682Z,92.42
2022-08-22T00:54:56.661Z,92.63
2022-08-22T00:55:56.674Z,92.93
2022-08-22T00:56:56.643Z,92.77
2022-08-22T00:57:56.635Z,93.18
2022-08-22T00:58:56.615Z,92.87
2022-08-22T00:59:56.641Z,92.26
2022-08-22T01:00:56.649Z,92.97
2022-08-22T01:01:56.611Z,92.77
2022-08-22T01:02:56.573Z,92.77
2022-08-22T01:03:56.565Z,93.59
2022-08-22T01:04:56.553Z,93.48
2022-08-22T01:05:56.543Z,93.38
2022-08-22T01:06:56.548Z,93.59
2022-08-22T01:07:56.646Z,93.79
2022-08-22T01:08:56.539Z,93.68
2022-08-22T01:09:56.500Z,93.52
2022-08-22T01:10:56.517Z,93.89
2022-08-22T01:11:56.495Z,93.99
2022-08-22T01:12:56.461Z,94.44
2022-08-22T01:13:56.478Z,94.95
2022-08-22T01:14:56.436Z,94.24
2022-08-22T01:15:56.430Z,94.24
2022-08-22T01:16:56.415Z,94.24
2022-08-22T01:17:56.474Z,95.05
2022-08-22T01:18:56.418Z,94.95
2022-08-22T01:19:56.385Z,94.95
2022-08-22T01:20:56.376Z,95.05
2022-08-22T01:21:56.362Z,94.59
2022-08-22T01:22:56.348Z,94.79
2022-08-22T01:23:56.366Z,94.64
2022-08-22T01:24:56.350Z,95.30
2022-08-22T01:25:56.314Z,94.95
2022-08-22T01:26:56.306Z,94.89
2022-08-22T01:27:56.347Z,95.50
2022-08-22T01:28:56.306Z,95.81
2022-08-22T01:29:56.274Z,94.89
2022-08-22T01:30:56.259Z,94.89
2022-08-22T01:31:56.251Z,95.20
2022-08-22T01:32:57.083Z,95.20
2022-08-22T01:33:56.229Z,95.20
2022-08-22T01:34:56.256Z,95.00
2022-08-22T01:35:56.214Z,95.09
2022-08-22T01:36:56.195Z,95.30
2022-08-22T01:37:56.217Z,95.09
2022-08-22T01:38:56.168Z,95.09
2022-08-22T01:39:56.249Z,94.89
2022-08-22T01:40:56.149Z,94.69
2022-08-22T01:41:56.163Z,94.69
2022-08-22T01:42:56.125Z,94.89
2022-08-22T01:43:59.972Z,94.89
2022-08-22T01:44:56.129Z,95.50
2022-08-22T01:45:56.096Z,95.30
2022-08-22T01:46:56.083Z,95.61
2022-08-22T01:47:56.073Z,95.75
2022-08-22T01:48:56.084Z,95.50
2022-08-22T01:49:56.072Z,95.24
2022-08-22T01:50:56.037Z,95.54
2022-08-22T01:51:56.028Z,95.65
2022-08-22T01:52:56.039Z,95.65
2022-08-22T01:53:56.006Z,95.65
2022-08-22T01:54:56.013Z,95.95
2022-08-22T01:55:55.984Z,96.06
2022-08-22T01:56:55.997Z,95.95
2022-08-22T01:57:56.087Z,95.85
2022-08-22T01:58:55.948Z,95.65
2022-08-22T01:59:55.940Z,96.06
2022-08-22T02:00:55.995Z,96.36
2022-08-22T02:01:55.915Z,96.06
2022-08-22T02:02:55.905Z,96.56
2022-08-22T02:03:55.893Z,96.15
2022-08-22T02:04:55.902Z,96.71
2022-08-22T02:05:56.167Z,96.71
2022-08-22T02:06:55.856Z,96.56
2022-08-22T02:07:55.927Z,96.46
2022-08-22T02:08:55.838Z,96.71
2022-08-22T02:09:55.829Z,96.56
2022-08-22T02:10:56.228Z,96.20
2022-08-22T02:11:55.803Z,96.41
2022-08-22T02:12:55.814Z,96.41
2022-08-22T02:13:55.782Z,96.30
2022-08-22T02:14:55.770Z,96.30
2022-08-22T02:15:55.761Z,96.61
2022-08-22T02:16:55.747Z,96.61
2022-08-22T02:17:55.797Z,96.81
2022-08-22T02:18:55.723Z,96.71
2022-08-22T02:19:55.718Z,96.71
2022-08-22T02:20:55.722Z,96.81
2022-08-22T02:21:55.697Z,97.02
2022-08-22T02:22:55.705Z,96.92
2022-08-22T02:23:56.101Z,97.42
2022-08-22T02:24:55.659Z,97.12
2022-08-22T02:25:55.658Z,97.12
2022-08-22T02:26:55.641Z,97.02
2022-08-22T02:27:55.703Z,97.32
2022-08-22T02:28:56.980Z,97.53
2022-08-22T02:29:55.606Z,97.32
2022-08-22T02:30:55.594Z,97.42
2022-08-22T02:31:55.584Z,97.42
2022-08-22T02:32:55.598Z,97.22
2022-08-22T02:33:55.582Z,97.27
2022-08-22T02:34:55.586Z,97.12
2022-08-22T02:35:55.535Z,97.16
2022-08-22T02:36:58.082Z,97.12
2022-08-22T02:37:55.657Z,97.22
2022-08-22T02:38:55.511Z,97.12
2022-08-22T02:39:55.529Z,97.42
2022-08-22T02:40:55.493Z,97.32
2022-08-22T02:41:55.472Z,97.42
2022-08-22T02:42:55.632Z,97.02
2022-08-22T02:43:55.470Z,97.17
2022-08-22T02:44:55.440Z,96.92
2022-08-22T02:45:55.428Z,96.71
2022-08-22T02:46:55.437Z,96.30
2022-08-22T02:47:55.425Z,96.61
2022-08-22T02:48:55.392Z,96.61
2022-08-22T02:49:55.409Z,96.41
2022-08-22T02:50:55.373Z,96.41
2022-08-22T02:51:55.384Z,96.51
2022-08-22T02:52:55.350Z,96.41
2022-08-22T02:53:55.357Z,96.71
2022-08-22T02:54:55.327Z,96.71
2022-08-22T02:55:55.334Z,97.06
2022-08-22T02:56:55.309Z,96.81
2022-08-22T02:57:55.338Z,97.57
2022-08-22T02:58:57.018Z,96.96
2022-08-22T02:59:55.301Z,97.47
2022-08-22T03:00:55.325Z,97.16
2022-08-22T03:01:55.248Z,97.21
2022-08-22T03:02:55.268Z,97.57
2022-08-22T03:03:55.226Z,97.11
2022-08-22T03:04:55.241Z,97.21
2022-08-22T03:05:59.144Z,97.31
2022-08-22T03:06:56.194Z,97.41
2022-08-22T03:07:55.214Z,97.62
2022-08-22T03:08:55.169Z,97.52
2022-08-22T03:09:55.180Z,97.21
2022-08-22T03:10:55.150Z,97.31
2022-08-22T03:11:55.137Z,97.06
2022-08-22T03:12:57.586Z,97.67
2022-08-22T03:13:55.114Z,97.67
2022-08-22T03:14:55.124Z,97.57
2022-08-22T03:15:55.097Z,97.62
2022-08-22T03:16:55.085Z,97.62
2022-08-22T03:17:55.157Z,97.31
2022-08-22T03:18:55.060Z,97.52
2022-08-22T03:19:55.077Z,97.62
2022-08-22T03:20:55.040Z,97.52
2022-08-22T03:21:55.022Z,97.52
2022-08-22T03:22:55.014Z,97.62
2022-08-22T03:23:55.008Z,97.62
2022-08-22T03:24:55.486Z,97.72
2022-08-22T03:25:55.003Z,97.82
2022-08-22T03:26:54.992Z,98.33
2022-08-22T03:27:54.958Z,98.13
2022-08-22T03:29:00.189Z,98.33
2022-08-22T03:29:55.935Z,98.18
2022-08-22T03:30:54.930Z,98.07
2022-08-22T03:31:54.913Z,98.27
2022-08-22T03:32:54.928Z,98.27
2022-08-22T03:33:54.910Z,98.38
2022-08-22T03:34:54.881Z,98.07
2022-08-22T03:35:54.870Z,98.07
2022-08-22T03:36:54.859Z,97.77
2022-08-22T03:37:54.916Z,97.87
2022-08-22T03:38:54.901Z,98.18
2022-08-22T03:39:54.912Z,98.18
2022-08-22T03:40:54.815Z,98.18
2022-08-22T03:41:54.800Z,97.77
2022-08-22T03:42:54.796Z,98.27
2022-08-22T03:43:54.802Z,98.63
2022-08-22T03:44:54.770Z,98.48
2022-08-22T03:45:54.760Z,99.04
2022-08-22T03:46:54.751Z,99.14
2022-08-22T03:47:54.763Z,99.19
2022-08-22T03:48:54.769Z,99.09
2022-08-22T03:49:59.225Z,98.99
2022-08-22T03:50:54.736Z,98.93
2022-08-22T03:51:54.703Z,98.83
2022-08-22T03:52:54.694Z,99.04
2022-08-22T03:53:54.707Z,98.99
2022-08-22T03:54:54.666Z,98.83
2022-08-22T03:55:54.937Z,98.63
2022-08-22T03:57:00.255Z,98.89
2022-08-22T03:57:55.668Z,98.83
2022-08-22T03:58:54.618Z,98.73
2022-08-22T03:59:54.621Z,98.83
2022-08-22T04:00:55.952Z,98.93
2022-08-22T04:01:54.577Z,99.24
2022-08-22T04:02:54.571Z,99.04
2022-08-22T04:03:54.577Z,99.14
2022-08-22T04:04:54.569Z,99.24
2022-08-22T04:05:54.532Z,99.34
2022-08-22T04:06:56.470Z,99.34
2022-08-22T04:07:54.531Z,99.65
2022-08-22T04:08:54.524Z,99.65
2022-08-22T04:09:54.490Z,99.34
2022-08-22T04:10:54.480Z,99.44
2022-08-22T04:11:54.488Z,99.44
2022-08-22T04:12:54.458Z,99.49
2022-08-22T04:13:54.446Z,99.44
2022-08-22T04:14:54.436Z,99.39
2022-08-22T04:15:54.422Z,99.34
2022-08-22T04:16:54.430Z,99.34
2022-08-22T04:17:54.398Z,99.34
2022-08-22T04:18:54.391Z,99.54
2022-08-22T04:19:54.399Z,99.34
2022-08-22T04:20:54.369Z,99.54
2022-08-22T04:21:54.377Z,99.34
2022-08-22T04:22:54.346Z,99.34
2022-08-22T04:23:54.333Z,99.44
2022-08-22T04:24:54.326Z,99.34
2022-08-22T04:25:54.312Z,99.34
2022-08-22T04:26:54.338Z,99.24
2022-08-22T04:27:54.289Z,99.44
2022-08-22T04:28:54.280Z,99.44
2022-08-22T04:29:54.267Z,99.14
2022-08-22T04:30:54.259Z,99.14
2022-08-22T04:31:54.270Z,99.54
2022-08-22T04:32:54.235Z,99.14
2022-08-22T04:33:54.224Z,99.44
2022-08-22T04:34:54.216Z,99.14
2022-08-22T04:35:54.221Z,99.14
2022-08-22T04:36:54.190Z,99.14
2022-08-22T04:37:54.178Z,99.14
2022-08-22T04:38:54.168Z,99.54
2022-08-22T04:39:54.204Z,99.34
2022-08-22T04:40:54.173Z,99.44
2022-08-22T04:41:54.132Z,99.34
2022-08-22T04:42:54.128Z,99.14
2022-08-22T04:43:54.110Z,99.34
2022-08-22T04:44:54.102Z,99.34
2022-08-22T04:45:54.112Z,99.44
2022-08-22T04:46:54.075Z,99.24
2022-08-22T04:47:54.428Z,99.24
2022-08-22T04:48:54.055Z,99.24
2022-08-22T04:49:54.041Z,99.44
2022-08-22T04:50:54.034Z,99.24
2022-08-22T04:51:54.050Z,99.19
2022-08-22T04:52:54.011Z,99.19
2022-08-22T04:53:54.002Z,99.24
2022-08-22T04:54:53.987Z,99.40
2022-08-22T04:55:53.985Z,99.44
2022-08-22T04:56:53.989Z,99.65
2022-08-22T04:57:53.959Z,98.89
2022-08-22T04:58:53.950Z,98.89
2022-08-22T04:59:53.931Z,98.89
2022-08-22T05:00:53.923Z,98.99
2022-08-22T05:01:53.990Z,99.19
2022-08-22T05:02:53.905Z,98.79
2022-08-22T05:03:53.890Z,98.79
2022-08-22T05:04:53.877Z,98.68
2022-08-22T05:05:53.866Z,98.68
2022-08-22T05:06:53.854Z,98.79
2022-08-22T05:07:53.865Z,99.09
2022-08-22T05:08:54.167Z,98.99
2022-08-22T05:09:53.821Z,98.89
2022-08-22T05:10:53.810Z,98.79
2022-08-22T05:11:53.795Z,99.09
2022-08-22T05:12:53.807Z,99.19
2022-08-22T05:13:53.774Z,99.19
2022-08-22T05:14:54.596Z,99.15
2022-08-22T05:15:53.761Z,99.19
2022-08-22T05:16:53.743Z,99.04
2022-08-22T05:17:53.752Z,99.15
2022-08-22T05:18:53.721Z,98.94
2022-08-22T05:19:53.708Z,99.15
2022-08-22T05:20:53.699Z,98.33
2022-08-22T05:21:53.685Z,98.54
2022-08-22T05:22:53.698Z,98.23
2022-08-22T05:23:53.665Z,98.02
2022-08-22T05:24:53.654Z,97.88
2022-08-22T05:25:54.405Z,97.92
2022-08-22T05:26:53.630Z,98.08
2022-08-22T05:27:57.165Z,98.18
2022-08-22T05:28:53.649Z,97.98
2022-08-22T05:29:53.597Z,97.98
2022-08-22T05:30:53.587Z,97.78
2022-08-22T05:31:53.576Z,97.83
2022-08-22T05:32:53.597Z,97.63
2022-08-22T05:33:53.553Z,97.63
2022-08-22T05:34:53.544Z,97.73
2022-08-22T05:35:57.742Z,97.83
2022-08-22T05:36:53.534Z,96.92
2022-08-22T05:37:53.534Z,97.32
2022-08-22T05:38:53.497Z,97.38
2022-08-22T05:39:53.508Z,96.97
2022-08-22T05:40:53.475Z,96.46
2022-08-22T05:41:53.463Z,96.06
2022-08-22T05:42:53.474Z,96.31
2022-08-22T05:43:53.442Z,95.81
2022-08-22T05:44:53.430Z,95.61
2022-08-22T05:45:53.419Z,94.95
2022-08-22T05:46:53.432Z,94.70
2022-08-22T05:47:53.418Z,93.99
2022-08-22T05:48:53.389Z,93.68
2022-08-22T05:49:53.448Z,93.33
2022-08-22T05:50:53.366Z,92.93
2022-08-22T05:51:53.350Z,92.58
2022-08-22T05:52:53.366Z,92.68
2022-08-22T05:53:53.331Z,92.58
2022-08-22T05:54:53.340Z,91.83
2022-08-22T05:55:53.402Z,91.36
2022-08-22T05:56:53.303Z,91.73
2022-08-22T05:57:53.335Z,91.32
2022-08-22T05:58:53.295Z,90.77
2022-08-22T05:59:53.261Z,90.31
2022-08-22T06:00:53.261Z,90.06
2022-08-22T06:01:53.322Z,89.65
2022-08-22T06:02:53.252Z,89.45
2022-08-22T06:03:53.216Z,89.04
2022-08-22T06:04:53.207Z,89.21
2022-08-22T06:05:53.208Z,89.01
2022-08-22T06:06:53.193Z,88.90
2022-08-22T06:07:53.263Z,89.11
2022-08-22T06:08:53.185Z,88.96
2022-08-22T06:09:53.174Z,89.51
2022-08-22T06:10:53.142Z,89.06
2022-08-22T06:11:53.128Z,89.06
2022-08-22T06:12:53.120Z,88.96
2022-08-22T06:13:53.105Z,89.12
2022-08-22T06:14:53.117Z,88.72
2022-08-22T06:15:53.085Z,87.71
2022-08-22T06:16:53.079Z,87.77
2022-08-22T06:17:53.178Z,88.78
2022-08-22T06:18:53.052Z,87.52
2022-08-22T06:19:53.041Z,86.67
2022-08-22T06:20:53.055Z,85.56
2022-08-22T06:21:53.020Z,84.71
2022-08-22T06:22:53.009Z,84.97
2022-08-22T06:23:52.996Z,84.17
2022-08-22T06:24:52.987Z,83.32
2022-08-22T06:25:52.992Z,83.46
2022-08-22T06:26:52.983Z,83.26
2022-08-22T06:27:52.972Z,82.85
2022-08-22T06:28:55.620Z,82.95
2022-08-22T06:29:52.930Z,82.75
2022-08-22T06:30:52.921Z,82.89
2022-08-22T06:31:52.905Z,81.51
2022-08-22T06:32:59.204Z,81.71
2022-08-22T06:33:53.910Z,81.31
2022-08-22T06:34:52.895Z,81.41
2022-08-22T06:35:52.861Z,81.92
2022-08-22T06:36:52.851Z,82.62
2022-08-22T06:37:52.878Z,82.53
2022-08-22T06:38:52.834Z,83.50
2022-08-22T06:39:52.856Z,82.95
2022-08-22T06:40:52.804Z,82.85
2022-08-22T06:41:52.803Z,82.71
2022-08-22T06:42:52.805Z,82.57
2022-08-22T06:43:52.789Z,81.50
2022-08-22T06:44:52.785Z,81.67
2022-08-22T06:45:52.756Z,80.85
2022-08-22T06:46:52.740Z,80.55
2022-08-22T06:47:53.700Z,80.11
2022-08-22T06:48:52.738Z,79.21
2022-08-22T06:49:52.709Z,80.31
2022-08-22T06:50:52.696Z,80.01
2022-08-22T06:51:52.709Z,79.94
2022-08-22T06:52:52.694Z,79.30
2022-08-22T06:53:52.682Z,79.91
2022-08-22T06:54:52.650Z,79.71
2022-08-22T06:55:52.640Z,78.50
2022-08-22T06:56:52.644Z,78.90
2022-08-22T06:57:52.701Z,79.61
2022-08-22T06:58:52.628Z,80.47
2022-08-22T06:59:52.596Z,80.27
2022-08-22T07:01:05.151Z,80.38
2022-08-22T07:01:53.616Z,80.18
2022-08-22T07:02:52.615Z,79.57
2022-08-22T07:03:52.551Z,79.87
2022-08-22T07:04:52.676Z,78.83
2022-08-22T07:05:52.552Z,78.76
2022-08-22T07:06:52.515Z,79.53
2022-08-22T07:07:52.507Z,79.49
2022-08-22T07:08:52.518Z,78.89
2022-08-22T07:09:52.482Z,78.79
2022-08-22T07:10:52.472Z,78.39
2022-08-22T07:11:52.550Z,77.48
2022-08-22T07:12:52.450Z,77.58
2022-08-22T07:13:52.497Z,78.25
2022-08-22T07:14:52.447Z,77.88
2022-08-22T07:15:52.437Z,78.39
2022-08-22T07:16:52.404Z,78.32
2022-08-22T07:17:52.444Z,78.79
2022-08-22T07:18:52.390Z,78.08
2022-08-22T07:19:52.403Z,77.95
2022-08-22T07:20:53.114Z,76.90
2022-08-22T07:21:52.349Z,76.97
2022-08-22T07:22:54.067Z,76.53
2022-08-22T07:23:52.327Z,76.59
2022-08-22T07:24:52.339Z,75.15
2022-08-22T07:25:52.308Z,73.10
2022-08-22T07:26:52.294Z,71.70
2022-08-22T07:27:52.322Z,72.47
2022-08-22T07:28:58.341Z,71.06
2022-08-22T07:29:53.290Z,70.86
2022-08-22T07:30:52.248Z,71.50
2022-08-22T07:31:52.240Z,71.77
2022-08-22T07:32:52.247Z,71.33
2022-08-22T07:33:52.240Z,71.86
2022-08-22T07:34:52.215Z,71.33
2022-08-22T07:35:53.458Z,71.63
2022-08-22T07:36:52.194Z,71.03
2022-08-22T07:37:52.180Z,71.06
2022-08-22T07:38:52.173Z,71.63
2022-08-22T07:39:53.719Z,70.59
2022-08-22T07:40:52.163Z,71.70
2022-08-22T07:41:52.133Z,69.06
2022-08-22T07:42:52.119Z,70.26
2022-08-22T07:43:52.107Z,70.23
2022-08-22T07:44:52.114Z,68.12
2022-08-22T07:45:52.107Z,67.82
2022-08-22T07:46:52.075Z,69.62
2022-08-22T07:47:52.067Z,69.32
2022-08-22T07:49:08.549Z,68.12
2022-08-22T07:49:53.044Z,68.49
2022-08-22T07:50:52.028Z,68.59
2022-08-22T07:51:52.022Z,69.09
2022-08-22T07:52:52.010Z,69.53
2022-08-22T07:53:51.998Z,70.59
2022-08-22T07:54:52.024Z,69.39
2022-08-22T07:55:51.974Z,69.12
2022-08-22T07:56:51.961Z,70.19
2022-08-22T07:57:51.954Z,68.89
2022-08-22T07:58:51.959Z,70.29
2022-08-22T07:59:51.958Z,70.89
2022-08-22T08:00:51.916Z,68.76
2022-08-22T08:01:51.949Z,69.93
2022-08-22T08:02:51.916Z,68.99
2022-08-22T08:03:51.892Z,68.19
2022-08-22T08:04:51.872Z,67.69
2022-08-22T08:05:51.864Z,67.76
2022-08-22T08:06:51.854Z,68.16
2022-08-22T08:07:51.840Z,67.23
2022-08-22T08:08:51.847Z,65.80
2022-08-22T08:09:51.818Z,65.50
2022-08-22T08:10:51.828Z,64.90
2022-08-22T08:11:51.799Z,65.90
2022-08-22T08:12:54.103Z,66.09
2022-08-22T08:13:52.785Z,66.20
2022-08-22T08:14:51.766Z,65.47
2022-08-22T08:15:51.792Z,65.47
2022-08-22T08:16:51.743Z,65.14
2022-08-22T08:17:51.737Z,63.44
2022-08-22T08:18:51.724Z,64.04
2022-08-22T08:19:51.877Z,64.04
2022-08-22T08:20:51.724Z,64.14
2022-08-22T08:21:51.705Z,64.41
2022-08-22T08:22:51.676Z,63.74
2022-08-22T08:23:51.662Z,64.47
2022-08-22T08:24:51.649Z,65.37
2022-08-22T08:25:53.386Z,65.97
2022-08-22T08:26:51.631Z,65.14
2022-08-22T08:27:51.618Z,64.51
2022-08-22T08:28:51.605Z,63.71
2022-08-22T08:29:51.598Z,64.01
2022-08-22T08:30:51.585Z,63.21
2022-08-22T08:31:51.595Z,61.71
2022-08-22T08:32:51.581Z,61.82
2022-08-22T08:33:52.557Z,63.18
2022-08-22T08:34:51.539Z,60.99
2022-08-22T08:36:02.866Z,62.08
2022-08-22T08:36:52.518Z,61.58
2022-08-22T08:37:51.517Z,62.71
2022-08-22T08:38:51.497Z,61.69
2022-08-22T08:39:51.520Z,61.09
2022-08-22T08:40:51.476Z,60.99
2022-08-22T08:41:51.487Z,62.08
2022-08-22T08:42:51.467Z,60.79
2022-08-22T08:43:51.450Z,60.86
2022-08-22T08:44:51.519Z,61.39
2022-08-22T08:45:51.426Z,63.12
2022-08-22T08:46:55.433Z,61.40
2022-08-22T08:47:51.407Z,60.50
2022-08-22T08:48:51.410Z,59.51
2022-08-22T08:49:51.383Z,59.98
2022-08-22T08:50:51.369Z,59.41
2022-08-22T08:51:51.886Z,59.70
2022-08-22T08:52:53.007Z,61.13
2022-08-22T08:53:51.368Z,60.83
2022-08-22T08:54:51.348Z,61.69
2022-08-22T08:55:51.322Z,60.38
2022-08-22T08:56:51.304Z,60.35
2022-08-22T08:57:51.328Z,59.72
2022-08-22T08:58:51.294Z,58.75
2022-08-22T08:59:51.276Z,60.25
2022-08-22T09:00:51.266Z,58.48
2022-08-22T09:01:51.269Z,59.44
2022-08-22T09:02:51.237Z,59.23
2022-08-22T09:03:51.488Z,60.21
2022-08-22T09:04:51.216Z,58.88
2022-08-22T09:05:51.208Z,60.27
2022-08-22T09:06:52.811Z,59.75
2022-08-22T09:07:52.203Z,59.05
2022-08-22T09:08:55.532Z,58.78
2022-08-22T09:09:52.521Z,60.05
2022-08-22T09:10:51.152Z,60.31
2022-08-22T09:11:51.141Z,59.32
2022-08-22T09:12:56.122Z,59.92
2022-08-22T09:13:52.136Z,58.90
2022-08-22T09:14:51.125Z,59.27
2022-08-22T09:15:58.453Z,58.74
2022-08-22T09:16:52.103Z,57.03
2022-08-22T09:17:51.078Z,58.72
2022-08-22T09:18:51.063Z,57.29
2022-08-22T09:19:51.053Z,56.60
2022-08-22T09:20:51.064Z,56.11
2022-08-22T09:21:51.054Z,56.73
2022-08-22T09:22:51.067Z,56.36
2022-08-22T09:23:53.319Z,57.10
2022-08-22T09:24:51.000Z,58.39
2022-08-22T09:25:50.989Z,57.27
2022-08-22T09:26:50.999Z,57.37
2022-08-22T09:27:50.970Z,58.33
2022-08-22T09:28:50.956Z,55.78
2022-08-22T09:29:54.851Z,56.51
2022-08-22T09:30:54.143Z,56.51
2022-08-22T09:31:52.135Z,57.69
2022-08-22T09:32:50.912Z,55.58
2022-08-22T09:33:51.827Z,56.25
2022-08-22T09:34:50.894Z,55.33
2022-08-22T09:35:50.881Z,56.00
2022-08-22T09:36:50.892Z,55.08
2022-08-22T09:37:50.860Z,55.55
2022-08-22T09:38:50.878Z,55.72
2022-08-22T09:39:50.932Z,52.95
2022-08-22T09:40:50.832Z,53.75
2022-08-22T09:41:51.616Z,53.64
2022-08-22T09:42:50.807Z,54.80
2022-08-22T09:43:50.863Z,52.61
2022-08-22T09:44:50.785Z,53.17
2022-08-22T09:45:50.785Z,52.53
2022-08-22T09:46:50.765Z,53.42
2022-08-22T09:47:50.758Z,52.53
2022-08-22T09:48:50.765Z,53.33
2022-08-22T09:49:50.741Z,53.94
2022-08-22T09:50:54.670Z,53.75
2022-08-22T09:51:51.714Z,53.77
2022-08-22T09:52:50.700Z,53.77
2022-08-22T09:53:50.709Z,52.76
2022-08-22T09:54:50.685Z,53.72
2022-08-22T09:55:50.670Z,55.10
2022-08-22T09:56:50.678Z,54.41
2022-08-22T09:57:50.650Z,52.61
2022-08-22T09:58:50.650Z,52.70
2022-08-22T09:59:50.689Z,52.11
2022-08-22T10:00:54.740Z,51.42
2022-08-22T10:01:50.604Z,50.16
2022-08-22T10:02:50.594Z,51.45
2022-08-22T10:03:50.589Z,49.40
2022-08-22T10:04:50.592Z,48.90
2022-08-22T10:05:50.564Z,50.48
2022-08-22T10:06:50.551Z,49.42
2022-08-22T10:07:51.497Z,50.98
2022-08-22T10:08:50.532Z,51.57
2022-08-22T10:09:54.859Z,51.30
2022-08-22T10:10:51.528Z,50.12
2022-08-22T10:11:50.501Z,50.12
2022-08-22T10:12:50.488Z,49.89
2022-08-22T10:13:51.940Z,50.26
2022-08-22T10:14:51.486Z,49.74
2022-08-22T10:15:50.461Z,50.14
2022-08-22T10:16:50.447Z,49.82
2022-08-22T10:17:50.457Z,49.60
2022-08-22T10:18:53.817Z,49.20
2022-08-22T10:19:51.413Z,48.39
2022-08-22T10:20:50.405Z,46.99
2022-08-22T10:21:50.414Z,46.57
2022-08-22T10:22:50.381Z,45.88
2022-08-22T10:23:50.376Z,44.70
2022-08-22T10:24:50.362Z,45.78
2022-08-22T10:25:50.350Z,45.00
2022-08-22T10:26:50.401Z,44.01
2022-08-22T10:27:50.332Z,42.83
2022-08-22T10:28:50.343Z,45.19
2022-08-22T10:29:50.310Z,44.88
2022-08-22T10:30:50.301Z,44.78
2022-08-22T10:31:58.429Z,44.68
2022-08-22T10:32:51.293Z,44.29
2022-08-22T10:33:50.270Z,43.40
2022-08-22T10:34:50.254Z,44.29
2022-08-22T10:35:50.246Z,44.48
2022-08-22T10:36:50.230Z,46.45
2022-08-22T10:37:50.390Z,45.07
2022-08-22T10:38:50.244Z,44.07
2022-08-22T10:39:50.248Z,43.23
2022-08-22T10:40:50.196Z,44.74
2022-08-22T10:41:50.183Z,45.18
2022-08-22T10:42:50.195Z,46.74
2022-08-22T10:44:00.798Z,46.04
2022-08-22T10:44:51.149Z,44.87
2022-08-22T10:45:50.139Z,45.16
2022-08-22T10:46:50.128Z,45.16
2022-08-22T10:47:50.140Z,45.06
2022-08-22T10:48:50.128Z,46.34
2022-08-22T10:49:51.275Z,46.25
2022-08-22T10:50:50.112Z,44.67
2022-08-22T10:51:50.082Z,45.46
2022-08-22T10:52:50.084Z,44.94
2022-08-22T10:53:50.053Z,44.76
2022-08-22T10:54:50.052Z,45.06
2022-08-22T10:55:50.033Z,45.46
2022-08-22T10:56:50.023Z,46.22
2022-08-22T10:57:52.807Z,44.94
2022-08-22T10:58:50.006Z,44.67
2022-08-22T10:59:49.994Z,45.95
2022-08-22T11:00:50.492Z,44.96
2022-08-22T11:01:50.015Z,45.16
2022-08-22T11:02:53.071Z,45.16
2022-08-22T11:03:49.951Z,44.37
2022-08-22T11:04:49.962Z,44.81
2022-08-22T11:05:50.188Z,45.01
2022-08-22T11:06:49.918Z,45.38
2022-08-22T11:07:50.251Z,44.69
2022-08-22T11:08:49.918Z,45.18
2022-08-22T11:09:49.884Z,44.87
2022-08-22T11:10:49.877Z,44.74
2022-08-22T11:11:49.867Z,44.92
2022-08-22T11:12:49.877Z,45.39
2022-08-22T11:13:49.861Z,46.33
2022-08-22T11:14:49.838Z,44.44
2022-08-22T11:15:49.842Z,45.60
2022-08-22T11:16:55.039Z,44.62
2022-08-22T11:17:54.196Z,44.10
2022-08-22T11:18:51.512Z,43.32
2022-08-22T11:19:50.781Z,42.90
2022-08-22T11:20:49.801Z,42.24
2022-08-22T11:21:51.008Z,41.77
2022-08-22T11:22:49.754Z,42.55
2022-08-22T11:23:50.738Z,41.78
2022-08-22T11:24:55.946Z,43.01
2022-08-22T11:25:53.760Z,42.40
2022-08-22T11:26:49.710Z,43.08
2022-08-22T11:27:49.735Z,43.08
2022-08-22T11:28:50.780Z,43.18
2022-08-22T11:29:49.677Z,44.24
2022-08-22T11:30:50.346Z,44.05
2022-08-22T11:31:51.935Z,43.28
2022-08-22T11:32:49.685Z,44.26
2022-08-22T11:33:49.640Z,43.28
2022-08-22T11:34:50.138Z,44.36
2022-08-22T11:35:49.612Z,44.34
2022-08-22T11:36:50.229Z,45.25
2022-08-22T11:37:51.303Z,44.44
2022-08-22T11:38:50.585Z,45.52
2022-08-22T11:39:49.614Z,46.50
2022-08-22T11:40:49.563Z,45.23
2022-08-22T11:41:52.487Z,42.99
2022-08-22T11:42:49.559Z,42.34
2022-08-22T11:43:49.567Z,43.23
2022-08-22T11:44:50.683Z,43.17
2022-08-22T11:45:49.510Z,44.10
2022-08-22T11:46:49.521Z,46.19
2022-08-22T11:47:49.493Z,46.59
2022-08-22T11:48:49.480Z,45.18
2022-08-22T11:49:49.467Z,47.43
2022-08-22T11:50:49.459Z,45.46
2022-08-22T11:51:49.639Z,44.94
2022-08-22T11:52:51.612Z,44.96
2022-08-22T11:53:50.426Z,46.25
2022-08-22T11:54:49.418Z,45.43
2022-08-22T11:55:49.431Z,44.74
2022-08-22T11:56:49.459Z,44.65
2022-08-22T11:57:49.405Z,44.43
2022-08-22T11:58:49.395Z,44.35
2022-08-22T11:59:49.364Z,44.35
2022-08-22T12:00:49.364Z,45.73
2022-08-22T12:01:49.377Z,46.10
2022-08-22T12:02:49.350Z,45.59
2022-08-22T12:03:50.992Z,45.39
2022-08-22T12:04:50.308Z,44.94
2022-08-22T12:05:49.334Z,44.76
2022-08-22T12:06:49.689Z,45.57
2022-08-22T12:07:50.582Z,45.16
2022-08-22T12:08:49.268Z,45.26
2022-08-22T12:09:49.294Z,45.26
2022-08-22T12:10:49.247Z,44.87
2022-08-22T12:11:49.271Z,44.87
2022-08-22T12:12:49.227Z,44.98
2022-08-22T12:13:49.215Z,43.60
2022-08-22T12:14:49.208Z,44.07
2022-08-22T12:15:49.191Z,43.19
2022-08-22T12:16:49.185Z,44.57
2022-08-22T12:17:55.916Z,43.86
2022-08-22T12:18:52.864Z,44.65
2022-08-22T12:20:14.737Z,43.27
2022-08-22T12:20:50.143Z,42.58
2022-08-22T12:21:49.617Z,42.60
2022-08-22T12:22:49.736Z,42.50
2022-08-22T12:23:50.427Z,42.38
2022-08-22T12:24:49.096Z,42.58
2022-08-22T12:25:49.476Z,42.79
2022-08-22T12:26:49.075Z,42.13
2022-08-22T12:27:55.196Z,42.40
2022-08-22T12:28:50.054Z,42.89
2022-08-22T12:29:49.044Z,44.67
2022-08-22T12:30:49.039Z,42.87
2022-08-22T12:31:50.046Z,42.77
2022-08-22T12:32:49.225Z,44.13
2022-08-22T12:33:49.003Z,42.46
2022-08-22T12:34:48.991Z,41.57
2022-08-22T12:35:48.982Z,42.50
2022-08-22T12:36:48.972Z,42.79
2022-08-22T12:37:53.131Z,42.99
2022-08-22T12:38:48.952Z,43.38
2022-08-22T12:39:48.966Z,42.61
2022-08-22T12:40:48.934Z,42.50
2022-08-22T12:41:48.938Z,43.21
2022-08-22T12:42:48.936Z,42.93
2022-08-22T12:43:49.516Z,42.64
2022-08-22T12:44:48.884Z,42.14
2022-08-22T12:45:50.870Z,42.83
2022-08-22T12:46:48.860Z,42.56
2022-08-22T12:47:48.870Z,43.27
2022-08-22T12:48:48.846Z,42.19
2022-08-22T12:49:50.038Z,43.31
2022-08-22T12:50:48.821Z,44.20
2022-08-22T12:51:48.828Z,44.20
2022-08-22T12:52:48.798Z,45.81